aviador You're here:

EGUN Decoded Metar

MILDENHALL in ENGLAND
Report Time2018-05-21 15:56:00
UTC Time2018-05-21 16:52:35
Flight Rules vfr VFR
Wind030° at 09 kt
W.Decomp.*RWY 11: 1.7 kt HW 8.8 kt LCW
W.Rank030° ranks 32
Current wind is above 030° avg. (6.0)
Visibility9999 m
Phenomena:N/A
Clouds:Few 120 Hf
Expected CloudBase > 6,400 ft AGL from Temp-Dew spread
CeilingNone
Temp24°C (ISA +9)
Dew Point08°C (36% RH)
AAT20.3°C
QNH1014 hPa
Density Alt1,198 ft
Elevation33 ft
Report Wrong Elevation
Raw Report
EGUN 211556Z AUTO 03009KT 9999 FEW120 24/08 A2994 RMK AO2 SLP142
T02410077 .=

Extra information for EGUN:More info

Metar Taf Metar & Taf Last 4 Metars F.Rules Stats Wind Profile Meteogram Temp Stats Airport Information Weather charts Add Link Nearby VenuesMetar ALERT Operation Metar Decoded Social comments